»·PEaware :: WJA1698 CYVR-KLAX

WJA1698 :: CYVR-KLAX

FLIGHT INFORMATION

Flight Status: Arrived
Operator:
Westjet Airlines
More flights by this operator :: More flights under this callsign
Pilot: Alex L. (5269)
Aircraft: BOEING 737-800
(B738)
More flights by this aircraft type
Origin: CYVR Vancouver Intl
Canada
Destination: KLAX Los Angeles Intl
United States
More flights between these airports :: More routes between these airports
Route: YVR J5 LKV FRA DERBB SADDE6
File this flight plan on PilotEdge
Remarks: Twitch live streaming @alexsflyingclub
Altitude:
(Current/Filed)
39,000ft
Speed:
(Current/Filed)
444kts
Departed: 13-Feb-15 04:38 PM
Arrived: 13-Feb-15 06:59 PM
Distance/Time
Traveled:
939nm/2:21
Distance/Time
To Go:
Arrived

Flight Plot

Page will automatically refresh every two minutes.


Map Options




Map Legend


Flown Route
Filed Route
Departure Airport
Arrival Airport
Navaid (VOR, NDB)
Fix

Horizontal Profiles

Position Reports

Time Latitude Longitude Heading Altitude Ground
Speed
13-Feb-15 16:31 47.837095 -122.522992 166 30628ft 443kts
13-Feb-15 16:32 47.720865 -122.459763 162 31523ft 459kts
13-Feb-15 16:33 47.602650 -122.394513 163 33156ft 449kts
13-Feb-15 16:34 47.485047 -122.328648 164 34087ft 449kts
13-Feb-15 16:35 47.366768 -122.270164 167 34610ft 458kts
13-Feb-15 16:36 47.242159 -122.221898 170 35462ft 454kts
13-Feb-15 16:37 47.117991 -122.178274 170 36093ft 459kts
13-Feb-15 16:38 46.996908 -122.139198 172 37757ft 440kts
13-Feb-15 16:39 46.876764 -122.108240 172 38720ft 434kts
13-Feb-15 16:40 46.759931 -122.064940 168 39135ft 430kts
13-Feb-15 16:41 46.646066 -122.009207 166 39247ft 433kts
13-Feb-15 16:42 46.531301 -121.955550 170 39161ft 431kts
13-Feb-15 16:43 46.415060 -121.910591 170 39105ft 434kts
13-Feb-15 16:44 46.298647 -121.866071 170 39123ft 429kts
13-Feb-15 16:45 46.186319 -121.823035 170 39156ft 415kts
13-Feb-15 16:46 46.075580 -121.780897 170 39166ft 412kts
13-Feb-15 16:47 45.964890 -121.739012 170 39170ft 409kts
13-Feb-15 16:48 45.855804 -121.697922 170 39183ft 410kts
13-Feb-15 16:49 45.760850 -121.662299 170 39183ft 408kts
13-Feb-15 16:51 45.650852 -121.621181 170 39207ft 405kts
13-Feb-15 16:52 45.542724 -121.580937 170 39206ft 407kts
13-Feb-15 16:53 45.433301 -121.540370 170 39221ft 404kts
13-Feb-15 16:54 45.324242 -121.500100 170 39215ft 405kts
13-Feb-15 16:55 45.214878 -121.459877 170 39214ft 405kts
13-Feb-15 16:56 45.106392 -121.419463 170 39262ft 404kts
13-Feb-15 16:56 45.014537 -121.384191 170 39293ft 406kts
13-Feb-15 16:58 44.886429 -121.335237 169 39209ft 409kts
13-Feb-15 16:58 44.795191 -121.299498 170 39315ft 404kts
13-Feb-15 16:59 44.685154 -121.261490 174 39243ft 407kts
13-Feb-15 17:00 44.575057 -121.226545 171 39204ft 405kts
13-Feb-15 17:01 44.468330 -121.187758 169 39192ft 407kts
13-Feb-15 17:02 44.358625 -121.148046 171 39243ft 405kts
13-Feb-15 17:03 44.248663 -121.112409 171 39269ft 405kts
13-Feb-15 17:04 44.138950 -121.071682 170 39227ft 406kts
13-Feb-15 17:05 44.028897 -121.033483 170 39193ft 407kts
13-Feb-15 17:06 43.919055 -120.995210 170 39186ft 408kts
13-Feb-15 17:07 43.810254 -120.957210 170 39181ft 409kts
13-Feb-15 17:08 43.699724 -120.918598 170 39181ft 409kts
13-Feb-15 17:09 43.592169 -120.881223 170 39183ft 409kts
13-Feb-15 17:10 43.479868 -120.842366 170 39189ft 409kts
13-Feb-15 17:11 43.369226 -120.804233 170 39189ft 409kts
13-Feb-15 17:12 43.258981 -120.766381 170 39188ft 409kts
13-Feb-15 17:13 43.148104 -120.728453 170 39175ft 410kts
13-Feb-15 17:14 43.037143 -120.690637 170 39172ft 410kts
13-Feb-15 17:15 42.928206 -120.653646 170 39171ft 410kts
13-Feb-15 17:16 42.816801 -120.615954 170 39171ft 410kts
13-Feb-15 17:17 42.707180 -120.578884 170 39171ft 410kts
13-Feb-15 17:18 42.596547 -120.541418 170 39185ft 410kts
13-Feb-15 17:19 42.485344 -120.505285 173 39241ft 409kts
13-Feb-15 17:20 42.373730 -120.481972 177 39366ft 405kts
13-Feb-15 17:21 42.261763 -120.464208 179 39265ft 401kts
13-Feb-15 17:22 42.149840 -120.445622 180 39129ft 402kts
13-Feb-15 17:23 42.039208 -120.426676 178 39289ft 405kts
13-Feb-15 17:24 41.927014 -120.404733 187 39187ft 403kts
13-Feb-15 17:25 41.815984 -120.378144 173 38987ft 409kts
13-Feb-15 17:26 41.704532 -120.350450 175 39233ft 408kts
13-Feb-15 17:27 41.591912 -120.329373 177 38967ft 406kts
13-Feb-15 17:28 41.479914 -120.315722 178 39198ft 407kts
13-Feb-15 17:29 41.369113 -120.301069 177 39144ft 405kts
13-Feb-15 17:30 41.258043 -120.283677 178 39194ft 400kts
13-Feb-15 17:31 41.147160 -120.265017 178 39200ft 401kts
13-Feb-15 17:32 41.036207 -120.245883 178 39200ft 401kts
13-Feb-15 17:33 40.926720 -120.226865 177 39196ft 402kts
13-Feb-15 17:34 40.815494 -120.207529 177 39195ft 402kts
13-Feb-15 17:35 40.706981 -120.188699 177 39186ft 404kts
13-Feb-15 17:36 40.595260 -120.169365 177 39182ft 404kts
13-Feb-15 17:37 40.483642 -120.150105 177 39178ft 405kts
13-Feb-15 17:38 40.371515 -120.130823 177 39176ft 405kts
13-Feb-15 17:39 40.259381 -120.111603 177 39177ft 405kts
13-Feb-15 17:40 40.147624 -120.092511 177 39176ft 405kts
13-Feb-15 17:41 40.035145 -120.073359 177 39175ft 405kts
13-Feb-15 17:42 39.922971 -120.054324 176 39172ft 407kts
13-Feb-15 17:43 39.813296 -120.035772 177 39181ft 401kts
13-Feb-15 17:44 39.702787 -120.017138 178 39184ft 405kts
13-Feb-15 17:45 39.592472 -119.998592 180 39191ft 398kts
13-Feb-15 17:46 39.485575 -119.980684 183 39249ft 376kts
13-Feb-15 17:47 39.381657 -119.963336 180 39231ft 385kts
13-Feb-15 17:48 39.276187 -119.945772 179 39206ft 398kts
13-Feb-15 17:49 39.166296 -119.927537 176 39192ft 397kts
13-Feb-15 17:50 39.058598 -119.909691 184 39265ft 373kts
13-Feb-15 17:52 38.958103 -119.893121 185 39308ft 358kts
13-Feb-15 17:53 38.858533 -119.879002 187 39294ft 358kts
13-Feb-15 17:54 38.759062 -119.865210 185 39316ft 360kts
13-Feb-15 17:55 38.660295 -119.845590 183 40076ft 355kts
13-Feb-15 17:56 38.561759 -119.818258 180 40013ft 374kts
13-Feb-15 17:56 38.477281 -119.790198 185 39516ft 363kts
13-Feb-15 17:58 38.366753 -119.790516 188 39315ft 356kts
13-Feb-15 17:58 38.284046 -119.780768 185 39307ft 362kts
13-Feb-15 17:59 38.183257 -119.766007 185 39311ft 361kts
13-Feb-15 18:00 38.081621 -119.750205 182 39300ft 374kts
13-Feb-15 18:01 37.977529 -119.733686 182 39321ft 374kts
13-Feb-15 18:02 37.873693 -119.717134 181 39310ft 381kts
13-Feb-15 18:03 37.768408 -119.700363 180 39294ft 383kts
13-Feb-15 18:04 37.661080 -119.683280 180 39272ft 390kts
13-Feb-15 18:05 37.553376 -119.666185 179 39259ft 391kts
13-Feb-15 18:06 37.444719 -119.648993 178 39244ft 394kts
13-Feb-15 18:07 37.335546 -119.631726 178 39236ft 395kts
13-Feb-15 18:08 37.225817 -119.614479 178 39219ft 399kts
13-Feb-15 18:09 37.115195 -119.597364 178 39130ft 402kts
13-Feb-15 18:10 37.004641 -119.598120 189 39347ft 387kts
13-Feb-15 18:11 36.898275 -119.600948 189 38994ft 373kts
13-Feb-15 18:12 36.794660 -119.603638 186 39071ft 375kts
13-Feb-15 18:13 36.689958 -119.604358 189 39229ft 373kts
13-Feb-15 18:14 36.585316 -119.609656 189 39138ft 379kts
13-Feb-15 18:15 36.480139 -119.614360 193 39149ft 375kts
13-Feb-15 18:16 36.376246 -119.627576 188 39205ft 376kts
13-Feb-15 18:17 36.269623 -119.621733 184 39059ft 383kts
13-Feb-15 18:18 36.163759 -119.620479 187 39139ft 380kts
13-Feb-15 18:19 36.057970 -119.622181 187 39149ft 379kts
13-Feb-15 18:20 35.954108 -119.624445 187 38190ft 371kts
13-Feb-15 18:21 35.853662 -119.626853 187 35925ft 363kts
13-Feb-15 18:22 35.753320 -119.629263 188 33000ft 367kts
13-Feb-15 18:23 35.647778 -119.631825 189 28375ft 405kts
13-Feb-15 18:24 35.530799 -119.634868 186 24698ft 417kts
13-Feb-15 18:25 35.415091 -119.637581 186 24270ft 425kts
13-Feb-15 18:26 35.298689 -119.640104 182 24146ft 425kts
13-Feb-15 18:27 35.187828 -119.582766 151 24156ft 444kts
13-Feb-15 18:28 35.086089 -119.496564 150 24158ft 443kts
13-Feb-15 18:29 34.984860 -119.410583 149 24160ft 441kts
13-Feb-15 18:30 34.885566 -119.325861 149 23823ft 430kts
13-Feb-15 18:31 34.788479 -119.243654 149 21779ft 401kts
13-Feb-15 18:32 34.700167 -119.169222 149 19943ft 383kts
13-Feb-15 18:33 34.611099 -119.094259 149 16933ft 395kts
13-Feb-15 18:34 34.523505 -119.020633 150 15626ft 359kts
13-Feb-15 18:35 34.443684 -118.953886 150 14187ft 344kts
13-Feb-15 18:36 34.365254 -118.889441 155 12617ft 332kts
13-Feb-15 18:37 34.281738 -118.853288 168 11981ft 316kts
13-Feb-15 18:38 34.195937 -118.822174 167 11978ft 320kts
13-Feb-15 18:39 34.111565 -118.791203 166 11597ft 311kts
13-Feb-15 18:40 34.039073 -118.744175 121 10280ft 311kts
13-Feb-15 18:41 34.027995 -118.640457 99 8806ft 314kts
13-Feb-15 18:42 34.017147 -118.533175 94 7153ft 320kts
13-Feb-15 18:43 34.011966 -118.434972 80 6954ft 255kts
13-Feb-15 18:44 34.020096 -118.358473 82 6948ft 216kts
13-Feb-15 18:45 34.027464 -118.285550 84 6445ft 209kts
13-Feb-15 18:46 34.032511 -118.213629 103 5548ft 209kts
13-Feb-15 18:47 33.998230 -118.177602 199 4944ft 173kts
13-Feb-15 18:48 33.965594 -118.214904 258 4235ft 171kts
13-Feb-15 18:49 33.960966 -118.266614 268 2829ft 157kts
13-Feb-15 18:50 33.963881 -118.317438 269 1825ft 151kts
13-Feb-15 18:51 33.957036 -118.361433 258 1341ft 137kts
13-Feb-15 18:52 33.951019 -118.412927 264 147ft 138kts
13-Feb-15 18:53 33.948692 -118.430878 175 134ft 11kts
13-Feb-15 18:54 33.948403 -118.430836 172 134ft 0kts
13-Feb-15 18:55 33.948401 -118.430836 172 134ft 0kts
13-Feb-15 18:56 33.948399 -118.430836 172 134ft 0kts
13-Feb-15 18:57 33.947671 -118.430744 173 134ft 20kts
13-Feb-15 18:58 33.946542 -118.426771 80 134ft 10kts
13-Feb-15 19:00 33.947129 -118.420818 83 134ft 15kts
13-Feb-15 19:01 33.947639 -118.415958 79 134ft 14kts
13-Feb-15 19:02 33.948033 -118.412285 86 134ft 11kts
13-Feb-15 19:03 33.948303 -118.409680 81 134ft 0kts
13-Feb-15 19:04 33.948610 -118.406460 81 134ft 0kts
13-Feb-15 19:05 33.947218 -118.405838 184 134ft 9kts
13-Feb-15 19:05 33.946611 -118.404811 86 134ft 2kts
13-Feb-15 19:06 33.946616 -118.404724 86 134ft 0kts
13-Feb-15 19:07 33.946616 -118.404722 86 134ft 0kts
13-Feb-15 19:08 33.946616 -118.404722 86 134ft 0kts

Navigation Log

Ident Type
Flight plan parsing failed, navigation log unavailable